Dean Chapel, Louisiana
Current Conditions -  °F | °C
As of 9:53 AM on Monday 24 Nov 2014 (Local Time) from KMLU Reporting Station
Clear Clear  
Wind Chill: 55°   Ceiling: Unl
Heat Index: 55°   Visibility: 10mi
Dew Point: 37°   Wind: 14mph
Humidity: 51%   Direction: 320°NW
Pressure: 29.99"   Gusts: NA
Location:  32.5473°N, 92.2007°W
Report Text: KMLU 241553Z 32012KT 10SM CLR 13/03 A2999 RMK AO2 SLP153 T01280028
Loading
Personal Weather Stations






























Interactive Weather Map New forecast layout! Learn more

10-Day Weather Forecast

Advertisements
Track Severe Weather on mobile